createdAt,value
2023-04-27T00:00:56.436Z,3.35
2023-04-27T00:01:58.001Z,3.40
2023-04-27T00:03:00.660Z,3.55
2023-04-27T00:04:04.748Z,3.90
2023-04-27T00:05:07.230Z,4.38
2023-04-27T00:06:10.789Z,3.95
2023-04-27T00:07:12.637Z,3.75
2023-04-27T00:08:14.150Z,4.50
2023-04-27T00:09:16.134Z,3.58
2023-04-27T00:10:18.846Z,3.60
2023-04-27T00:11:20.507Z,3.90
2023-04-27T00:12:22.308Z,3.42
2023-04-27T00:13:23.747Z,3.78
2023-04-27T00:14:28.435Z,3.40
2023-04-27T00:15:30.065Z,3.47
2023-04-27T00:16:31.847Z,3.10
2023-04-27T00:17:33.682Z,3.13
2023-04-27T00:18:35.530Z,3.97
2023-04-27T00:19:36.954Z,3.80
2023-04-27T00:20:38.753Z,3.58
2023-04-27T00:21:40.222Z,3.40
2023-04-27T00:22:43.201Z,3.25
2023-04-27T00:23:44.899Z,3.63
2023-04-27T00:24:46.601Z,3.40
2023-04-27T00:25:48.404Z,3.80
2023-04-27T00:26:49.987Z,3.58
2023-04-27T00:27:51.822Z,3.10
2023-04-27T00:28:53.793Z,3.47
2023-04-27T00:29:56.250Z,4.03
2023-04-27T00:30:58.115Z,3.90
2023-04-27T00:31:59.952Z,3.83
2023-04-27T00:33:01.966Z,3.83
2023-04-27T00:34:03.963Z,3.58
2023-04-27T00:35:06.124Z,3.80
2023-04-27T00:36:08.783Z,3.97
2023-04-27T00:37:10.289Z,3.70
2023-04-27T00:38:12.252Z,3.08
2023-04-27T00:39:14.341Z,4.00
2023-04-27T00:40:16.261Z,4.05
2023-04-27T00:41:17.826Z,3.25
2023-04-27T00:42:19.896Z,4.55
2023-04-27T00:43:21.715Z,4.28
2023-04-27T00:44:26.922Z,3.65
2023-04-27T00:45:28.616Z,3.05
2023-04-27T00:46:31.029Z,4.20
2023-04-27T00:47:33.687Z,4.00
2023-04-27T00:48:36.662Z,4.15
2023-04-27T00:49:38.451Z,3.50
2023-04-27T00:50:40.324Z,3.90
2023-04-27T00:51:42.148Z,3.35
2023-04-27T00:52:44.624Z,4.10
2023-04-27T00:53:46.761Z,4.03
2023-04-27T00:54:52.068Z,3.35
2023-04-27T00:55:54.546Z,3.47
2023-04-27T00:56:56.594Z,4.03
2023-04-27T00:57:58.562Z,3.35
2023-04-27T00:59:00.222Z,3.65
2023-04-27T01:00:02.391Z,3.83
2023-04-27T01:01:04.120Z,3.25
2023-04-27T01:02:05.939Z,4.18
2023-04-27T01:03:08.506Z,3.80
2023-04-27T01:04:11.656Z,3.38
2023-04-27T01:05:13.797Z,3.47
2023-04-27T01:06:15.911Z,3.65
2023-04-27T01:07:17.794Z,3.40
2023-04-27T01:08:20.408Z,3.80
2023-04-27T01:09:22.028Z,4.13
2023-04-27T01:10:24.091Z,3.72
2023-04-27T01:11:26.037Z,3.47
2023-04-27T01:12:27.550Z,3.50
2023-04-27T01:13:29.664Z,3.70
2023-04-27T01:14:31.860Z,3.40
2023-04-27T01:15:33.682Z,3.70
2023-04-27T01:16:35.896Z,3.35
2023-04-27T01:17:40.499Z,3.30
2023-04-27T01:18:42.946Z,4.20
2023-04-27T01:19:45.315Z,3.38
2023-04-27T01:20:47.201Z,4.05
2023-04-27T01:21:48.679Z,3.22
2023-04-27T01:22:51.355Z,3.50
2023-04-27T01:23:53.411Z,3.67
2023-04-27T01:24:55.678Z,3.92
2023-04-27T01:25:57.836Z,3.85
2023-04-27T01:27:00.340Z,3.53
2023-04-27T01:28:02.068Z,4.50
2023-04-27T01:29:03.781Z,3.97
2023-04-27T01:30:06.554Z,4.10
2023-04-27T01:31:08.268Z,3.97
2023-04-27T01:32:10.031Z,4.72
2023-04-27T01:33:12.024Z,4.43
2023-04-27T01:34:13.629Z,3.85
2023-04-27T01:35:15.900Z,4.32
2023-04-27T01:36:17.790Z,3.60
2023-04-27T01:37:19.830Z,3.60
2023-04-27T01:38:24.260Z,4.10
2023-04-27T01:39:26.150Z,3.45
2023-04-27T01:40:27.742Z,4.35
2023-04-27T01:41:29.315Z,3.72
2023-04-27T01:42:31.426Z,3.50
2023-04-27T01:43:34.463Z,3.90
2023-04-27T01:44:36.174Z,4.13
2023-04-27T01:45:37.675Z,3.30
2023-04-27T01:46:39.958Z,4.38
2023-04-27T01:47:41.639Z,4.43
2023-04-27T01:48:43.445Z,4.00
2023-04-27T01:51:24.086Z,3.55
2023-04-27T01:52:44.543Z,3.30
2023-04-27T01:54:04.987Z,3.17
2023-04-27T01:56:45.234Z,3.42
2023-04-27T01:57:48.108Z,4.10
2023-04-27T01:59:08.716Z,2.90
2023-04-27T02:00:13.931Z,3.20
2023-04-27T02:01:15.876Z,3.42
2023-04-27T02:02:17.629Z,3.20
2023-04-27T02:04:39.384Z,3.30
2023-04-27T02:07:19.424Z,3.35
2023-04-27T02:08:39.672Z,3.08
2023-04-27T02:10:00.281Z,3.10
2023-04-27T02:11:01.814Z,3.55
2023-04-27T02:15:21.746Z,3.35
2023-04-27T02:18:02.036Z,3.25
2023-04-27T02:19:22.353Z,3.72
2023-04-27T02:20:43.108Z,4.07
2023-04-27T02:22:03.515Z,3.30
2023-04-27T02:25:01.734Z,3.78
2023-04-27T02:26:04.042Z,3.67
2023-04-27T02:27:06.330Z,3.70
2023-04-27T02:31:21.064Z,3.20
2023-04-27T02:37:51.051Z,3.15
2023-04-27T02:39:48.908Z,3.38
2023-04-27T02:41:46.648Z,2.83
2023-04-27T02:43:44.885Z,3.67
2023-04-27T02:47:58.605Z,3.63
2023-04-27T02:54:27.744Z,4.15
2023-04-27T02:56:25.200Z,4.10
2023-04-27T02:58:24.656Z,3.60
2023-04-27T03:00:23.211Z,3.30
2023-04-27T03:02:21.214Z,3.60
2023-04-27T03:04:19.999Z,3.40
2023-04-27T03:06:18.622Z,3.00
2023-04-27T03:08:16.737Z,3.15
2023-04-27T03:10:14.557Z,3.22
2023-04-27T03:14:28.018Z,3.58
2023-04-27T03:16:26.283Z,3.25
2023-04-27T03:17:46.498Z,3.70
2023-04-27T03:18:48.011Z,4.30
2023-04-27T03:19:55.716Z,2.97
2023-04-27T03:21:04.998Z,4.03
2023-04-27T03:22:06.618Z,4.13
2023-04-27T03:23:08.214Z,3.95
2023-04-27T03:24:10.176Z,3.47
2023-04-27T03:25:11.983Z,3.80
2023-04-27T03:26:14.157Z,3.20
2023-04-27T03:27:16.124Z,3.60
2023-04-27T03:28:17.882Z,4.18
2023-04-27T03:29:19.979Z,3.58
2023-04-27T03:30:21.789Z,4.13
2023-04-27T03:31:41.645Z,3.90
2023-04-27T03:32:45.023Z,3.58
2023-04-27T03:34:08.082Z,4.93
2023-04-27T03:35:47.258Z,3.90
2023-04-27T03:37:07.245Z,3.72
2023-04-27T03:38:10.114Z,3.97
2023-04-27T03:39:12.383Z,4.30
2023-04-27T03:40:51.446Z,3.65
2023-04-27T03:42:11.743Z,4.07
2023-04-27T03:43:34.394Z,3.70
2023-04-27T03:45:13.784Z,3.47
2023-04-27T03:46:34.296Z,3.88
2023-04-27T03:47:36.225Z,4.20
2023-04-27T03:49:15.781Z,3.00
2023-04-27T03:50:55.630Z,4.00
2023-04-27T03:52:16.123Z,4.07
2023-04-27T03:53:18.164Z,3.17
2023-04-27T03:54:38.511Z,3.67
2023-04-27T03:55:59.387Z,3.92
2023-04-27T03:57:39.363Z,3.78
2023-04-27T03:58:59.361Z,3.72
2023-04-27T04:00:20.516Z,3.72
2023-04-27T04:01:40.629Z,4.45
2023-04-27T04:03:19.780Z,3.80
2023-04-27T04:05:00.049Z,3.45
2023-04-27T04:06:21.157Z,3.85
2023-04-27T04:07:41.728Z,4.15
2023-04-27T04:09:02.322Z,3.50
2023-04-27T04:10:41.653Z,3.78
2023-04-27T04:12:22.809Z,3.55
2023-04-27T04:14:02.100Z,4.28
2023-04-27T04:15:22.327Z,3.28
2023-04-27T04:16:24.299Z,3.67
2023-04-27T04:18:03.477Z,4.38
2023-04-27T04:19:05.050Z,4.47
2023-04-27T04:20:26.885Z,4.15
2023-04-27T04:22:05.956Z,3.38
2023-04-27T04:23:26.166Z,3.78
2023-04-27T04:24:47.659Z,3.50
2023-04-27T04:25:49.376Z,4.00
2023-04-27T04:26:52.412Z,3.78
2023-04-27T04:28:14.732Z,3.72
2023-04-27T04:29:54.618Z,4.68
2023-04-27T04:31:15.267Z,3.40
2023-04-27T04:32:37.942Z,4.32
2023-04-27T04:33:59.037Z,3.45
2023-04-27T04:35:19.204Z,4.00
2023-04-27T04:36:40.976Z,3.75
2023-04-27T04:38:01.485Z,4.20
2023-04-27T04:39:22.261Z,4.20
2023-04-27T04:40:23.697Z,4.28
2023-04-27T04:42:03.112Z,3.80
2023-04-27T04:43:23.493Z,3.60
2023-04-27T04:45:03.052Z,4.10
2023-04-27T04:46:23.588Z,4.38
2023-04-27T04:47:44.234Z,3.83
2023-04-27T04:49:23.601Z,4.55
2023-04-27T04:51:04.407Z,4.13
2023-04-27T04:52:44.196Z,5.15
2023-04-27T04:54:23.414Z,4.22
2023-04-27T04:55:43.884Z,3.97
2023-04-27T04:57:04.718Z,4.50
2023-04-27T04:58:06.354Z,3.90
2023-04-27T04:59:26.868Z,4.15
2023-04-27T05:00:47.007Z,4.72
2023-04-27T05:02:26.204Z,4.28
2023-04-27T05:03:48.871Z,3.90
2023-04-27T05:05:09.507Z,4.35
2023-04-27T05:06:29.430Z,4.03
2023-04-27T05:07:31.499Z,3.72
2023-04-27T05:08:33.441Z,4.20
2023-04-27T05:10:12.479Z,4.40
2023-04-27T05:11:54.272Z,3.85
2023-04-27T05:12:57.133Z,3.97
2023-04-27T05:14:36.313Z,4.10
2023-04-27T05:15:56.684Z,3.92
2023-04-27T05:16:58.390Z,4.00
2023-04-27T05:18:01.328Z,3.95
2023-04-27T05:19:23.359Z,4.50
2023-04-27T05:20:43.235Z,4.25
2023-04-27T05:21:45.554Z,4.28
2023-04-27T05:23:24.661Z,3.85
2023-04-27T05:24:45.369Z,4.55
2023-04-27T05:25:48.260Z,4.57
2023-04-27T05:26:50.357Z,4.00
2023-04-27T05:28:29.722Z,4.20
2023-04-27T05:30:09.674Z,4.30
2023-04-27T05:31:30.024Z,3.65
2023-04-27T05:32:50.717Z,4.45
2023-04-27T05:33:53.234Z,3.80
2023-04-27T05:35:32.157Z,4.63
2023-04-27T05:36:52.594Z,4.60
2023-04-27T05:38:13.542Z,4.60
2023-04-27T05:39:34.008Z,3.95
2023-04-27T05:40:55.565Z,3.60
2023-04-27T05:41:57.874Z,3.70
2023-04-27T05:43:36.990Z,4.20
2023-04-27T05:44:39.735Z,3.90
2023-04-27T05:45:59.907Z,3.88
2023-04-27T05:47:01.640Z,4.00
2023-04-27T05:48:03.880Z,4.25
2023-04-27T05:49:23.980Z,3.85
2023-04-27T05:50:26.085Z,4.00
2023-04-27T05:52:05.236Z,4.45
2023-04-27T05:53:09.705Z,4.57
2023-04-27T05:54:11.615Z,4.10
2023-04-27T05:55:13.313Z,3.95
2023-04-27T05:56:33.326Z,3.85
2023-04-27T05:57:34.863Z,3.50
2023-04-27T05:58:54.851Z,3.70
2023-04-27T06:00:33.929Z,3.28
2023-04-27T06:01:54.652Z,3.22
2023-04-27T06:03:15.845Z,4.10
2023-04-27T06:04:37.220Z,3.97
2023-04-27T06:05:58.985Z,4.10
2023-04-27T06:07:38.879Z,3.63
2023-04-27T06:09:18.018Z,3.88
2023-04-27T06:10:19.433Z,4.77
2023-04-27T06:11:39.977Z,4.10
2023-04-27T06:12:43.425Z,3.43
2023-04-27T06:14:06.048Z,4.67
2023-04-27T06:15:26.295Z,3.67
2023-04-27T06:16:46.302Z,3.93
2023-04-27T06:18:25.203Z,3.70
2023-04-27T06:19:45.297Z,3.17
2023-04-27T06:21:24.855Z,3.43
2023-04-27T06:22:46.903Z,2.90
2023-04-27T06:23:48.998Z,2.93
2023-04-27T06:25:27.751Z,3.03
2023-04-27T06:26:47.971Z,3.33
2023-04-27T06:27:49.636Z,3.23
2023-04-27T06:29:10.188Z,2.90
2023-04-27T06:30:31.047Z,2.73
2023-04-27T06:31:32.639Z,2.80
2023-04-27T06:32:54.026Z,3.63
2023-04-27T06:34:14.717Z,3.10
2023-04-27T06:35:36.544Z,3.30
2023-04-27T06:36:57.053Z,3.03
2023-04-27T06:38:37.651Z,2.90
2023-04-27T06:40:16.764Z,3.50
2023-04-27T06:41:56.328Z,3.07
2023-04-27T06:43:17.202Z,3.23
2023-04-27T06:44:37.647Z,3.20
2023-04-27T06:46:17.170Z,2.93
2023-04-27T06:47:56.559Z,3.63
2023-04-27T06:48:58.931Z,3.40
2023-04-27T06:50:38.018Z,3.20
2023-04-27T06:51:39.881Z,3.20
2023-04-27T06:53:19.295Z,3.37
2023-04-27T06:54:58.420Z,3.33
2023-04-27T06:56:18.704Z,3.83
2023-04-27T06:57:39.071Z,3.67
2023-04-27T06:59:17.825Z,3.33
2023-04-27T07:00:38.054Z,2.80
2023-04-27T07:01:58.678Z,2.60
2023-04-27T07:03:19.665Z,2.90
2023-04-27T07:04:58.795Z,2.93
2023-04-27T07:06:03.182Z,3.10
2023-04-27T07:07:42.349Z,3.37
2023-04-27T07:09:06.020Z,3.50
2023-04-27T07:10:30.888Z,3.13
2023-04-27T07:11:51.075Z,3.33
2023-04-27T07:12:53.556Z,3.17
2023-04-27T07:14:13.881Z,3.37
2023-04-27T07:15:15.745Z,3.03
2023-04-27T07:16:38.856Z,2.53
2023-04-27T07:17:59.338Z,3.03
2023-04-27T07:19:19.759Z,2.80
2023-04-27T07:20:21.486Z,2.80
2023-04-27T07:21:23.760Z,3.07
2023-04-27T07:22:43.926Z,2.80
2023-04-27T07:24:23.466Z,1.97
2023-04-27T07:25:25.000Z,2.97
2023-04-27T07:26:27.306Z,2.90
2023-04-27T07:28:06.696Z,3.20
2023-04-27T07:29:28.414Z,3.33
2023-04-27T07:31:07.883Z,3.83
2023-04-27T07:32:28.434Z,3.77
2023-04-27T07:33:48.777Z,3.63
2023-04-27T07:34:53.983Z,3.80
2023-04-27T07:36:33.778Z,3.33
2023-04-27T07:37:38.486Z,4.23
2023-04-27T07:39:00.855Z,4.00
2023-04-27T07:40:21.499Z,4.40
2023-04-27T07:41:23.858Z,3.60
2023-04-27T07:42:44.578Z,3.67
2023-04-27T07:44:04.512Z,4.13
2023-04-27T07:45:25.327Z,3.90
2023-04-27T07:47:05.072Z,4.07
2023-04-27T07:48:25.608Z,3.07
2023-04-27T07:49:45.966Z,4.07
2023-04-27T07:51:25.486Z,3.60
2023-04-27T07:52:45.758Z,4.07
2023-04-27T07:54:24.987Z,4.23
2023-04-27T07:55:45.845Z,3.90
2023-04-27T07:57:25.234Z,3.63
2023-04-27T07:59:05.483Z,3.90
2023-04-27T08:00:09.215Z,3.87
2023-04-27T08:01:29.542Z,3.17
2023-04-27T08:02:50.025Z,3.67
2023-04-27T08:04:11.218Z,3.60
2023-04-27T08:05:13.749Z,2.90
2023-04-27T08:06:35.079Z,2.57
2023-04-27T08:07:58.602Z,3.10
2023-04-27T08:09:37.902Z,3.07
2023-04-27T08:10:58.111Z,3.97
2023-04-27T08:12:18.562Z,2.50
2023-04-27T08:13:57.882Z,2.80
2023-04-27T08:15:17.891Z,3.40
2023-04-27T08:16:38.477Z,3.20
2023-04-27T08:17:43.925Z,2.90
2023-04-27T08:19:04.320Z,2.63
2023-04-27T08:20:43.805Z,3.33
2023-04-27T08:22:04.298Z,3.30
2023-04-27T08:23:45.453Z,3.10
2023-04-27T08:25:06.033Z,3.40
2023-04-27T08:26:07.711Z,3.13
2023-04-27T08:27:28.302Z,3.40
2023-04-27T08:28:29.904Z,3.23
2023-04-27T08:29:50.755Z,2.60
2023-04-27T08:31:11.354Z,3.33
2023-04-27T08:32:31.582Z,3.53
2023-04-27T08:33:33.341Z,2.70
2023-04-27T08:34:35.037Z,2.67
2023-04-27T08:36:14.228Z,3.00
2023-04-27T08:37:34.948Z,3.60
2023-04-27T08:39:15.879Z,4.20
2023-04-27T08:40:55.280Z,4.20
2023-04-27T08:42:16.286Z,3.67
2023-04-27T08:43:36.362Z,3.00
2023-04-27T08:44:40.147Z,3.43
2023-04-27T08:46:00.716Z,3.37
2023-04-27T08:47:43.767Z,3.20
2023-04-27T08:49:04.424Z,2.90
2023-04-27T08:50:06.248Z,3.20
2023-04-27T08:51:28.777Z,3.53
2023-04-27T08:52:49.446Z,3.27
2023-04-27T08:53:52.264Z,3.13
2023-04-27T08:54:54.236Z,2.73
2023-04-27T08:56:15.148Z,3.70
2023-04-27T08:57:37.246Z,3.23
2023-04-27T08:59:17.402Z,3.53
2023-04-27T09:00:20.587Z,3.53
2023-04-27T09:01:41.381Z,3.40
2023-04-27T09:03:20.650Z,3.33
2023-04-27T09:04:40.898Z,3.30
2023-04-27T09:06:06.046Z,3.17
2023-04-27T09:07:18.156Z,3.60
2023-04-27T09:08:39.607Z,3.80
2023-04-27T09:09:59.962Z,3.50
2023-04-27T09:11:20.396Z,3.53
2023-04-27T09:13:00.764Z,3.43
2023-04-27T09:14:21.623Z,3.60
2023-04-27T09:16:00.801Z,2.80
2023-04-27T09:17:22.100Z,3.57
2023-04-27T09:19:01.441Z,3.57
2023-04-27T09:20:40.547Z,3.70
2023-04-27T09:22:00.591Z,3.63
2023-04-27T09:23:21.066Z,3.90
2023-04-27T09:24:41.736Z,3.87
2023-04-27T09:26:02.478Z,3.20
2023-04-27T09:27:24.864Z,2.63
2023-04-27T09:29:04.262Z,3.87
2023-04-27T09:30:31.125Z,3.07
2023-04-27T09:31:51.398Z,3.10
2023-04-27T09:33:13.455Z,3.10
2023-04-27T09:34:34.048Z,2.70
2023-04-27T09:35:54.762Z,3.00
2023-04-27T09:37:34.168Z,2.80
2023-04-27T09:38:36.002Z,3.20
2023-04-27T09:39:56.957Z,3.50
2023-04-27T09:41:17.889Z,3.20
2023-04-27T09:42:57.727Z,3.50
2023-04-27T09:44:02.659Z,3.47
2023-04-27T09:45:41.639Z,3.43
2023-04-27T09:47:01.869Z,2.90
2023-04-27T09:48:22.309Z,2.80
2023-04-27T09:49:43.715Z,3.03
2023-04-27T09:50:48.741Z,2.93
2023-04-27T09:52:11.786Z,2.40
2023-04-27T09:53:18.827Z,2.63
2023-04-27T09:54:43.303Z,2.67
2023-04-27T09:56:21.977Z,3.10
2023-04-27T09:57:51.515Z,3.00
2023-04-27T09:59:30.685Z,4.47
2023-04-27T10:01:02.188Z,3.27
2023-04-27T10:02:25.593Z,3.20
2023-04-27T10:04:05.319Z,2.90
2023-04-27T10:05:28.705Z,2.67
2023-04-27T10:07:08.047Z,2.53
2023-04-27T10:08:47.433Z,2.80
2023-04-27T10:10:08.879Z,2.87
2023-04-27T10:11:29.265Z,2.50
2023-04-27T10:12:49.857Z,2.70
2023-04-27T10:14:29.241Z,2.73
2023-04-27T10:15:50.186Z,2.70
2023-04-27T10:17:29.157Z,2.77
2023-04-27T10:19:08.550Z,3.30
2023-04-27T10:20:10.454Z,2.63
2023-04-27T10:21:12.643Z,2.40
2023-04-27T10:22:52.155Z,2.80
2023-04-27T10:24:13.942Z,2.63
2023-04-27T10:25:53.405Z,2.80
2023-04-27T10:27:14.314Z,2.83
2023-04-27T10:28:53.852Z,3.07
2023-04-27T10:29:55.653Z,3.67
2023-04-27T10:30:57.740Z,2.70
2023-04-27T10:32:24.586Z,3.17
2023-04-27T10:33:44.793Z,3.10
2023-04-27T10:35:06.156Z,3.40
2023-04-27T10:36:45.026Z,2.40
2023-04-27T10:38:06.300Z,3.00
2023-04-27T10:39:39.644Z,3.17
2023-04-27T10:41:07.406Z,2.53
2023-04-27T10:42:09.794Z,2.77
2023-04-27T10:43:12.100Z,3.30
2023-04-27T10:44:32.582Z,2.23
2023-04-27T10:45:34.817Z,2.50
2023-04-27T10:46:36.895Z,4.27
2023-04-27T10:48:16.678Z,2.23
2023-04-27T10:49:36.789Z,2.70
2023-04-27T10:50:57.461Z,3.00
2023-04-27T10:52:36.880Z,2.93
2023-04-27T10:53:39.527Z,3.60
2023-04-27T10:55:19.017Z,2.90
2023-04-27T10:56:39.188Z,2.90
2023-04-27T10:58:00.997Z,2.40
2023-04-27T10:59:04.463Z,2.60
2023-04-27T11:00:28.373Z,2.65
2023-04-27T11:01:49.128Z,2.97
2023-04-27T11:03:11.072Z,2.83
2023-04-27T11:04:32.954Z,3.40
2023-04-27T11:05:53.157Z,2.20
2023-04-27T11:07:13.453Z,3.30
2023-04-27T11:08:37.531Z,2.40
2023-04-27T11:09:41.192Z,2.10
2023-04-27T11:11:02.059Z,2.50
2023-04-27T11:12:07.240Z,2.35
2023-04-27T11:13:29.003Z,2.58
2023-04-27T11:14:30.740Z,2.53
2023-04-27T11:16:01.276Z,2.70
2023-04-27T11:17:04.529Z,3.00
2023-04-27T11:18:24.852Z,2.33
2023-04-27T11:19:26.575Z,2.50
2023-04-27T11:20:47.004Z,2.50
2023-04-27T11:21:49.613Z,2.70
2023-04-27T11:23:29.356Z,2.38
2023-04-27T11:25:08.413Z,2.47
2023-04-27T11:26:47.438Z,2.67
2023-04-27T11:28:26.731Z,2.58
2023-04-27T11:29:47.419Z,1.90
2023-04-27T11:31:07.676Z,2.85
2023-04-27T11:32:18.359Z,2.65
2023-04-27T11:33:19.888Z,2.40
2023-04-27T11:34:59.764Z,2.30
2023-04-27T11:36:19.781Z,2.03
2023-04-27T11:37:40.675Z,2.10
2023-04-27T11:39:20.008Z,1.90
2023-04-27T11:40:24.399Z,2.42
2023-04-27T11:41:54.050Z,2.23
2023-04-27T11:43:03.267Z,2.17
2023-04-27T11:44:23.513Z,2.20
2023-04-27T11:46:02.160Z,2.43
2023-04-27T11:47:06.083Z,2.43
2023-04-27T11:48:26.118Z,2.13
2023-04-27T11:49:29.426Z,2.25
2023-04-27T11:50:50.905Z,2.38
2023-04-27T11:52:12.011Z,1.77
2023-04-27T11:54:16.530Z,2.50
2023-04-27T11:55:20.123Z,2.90
2023-04-27T11:56:41.127Z,2.60
2023-04-27T11:58:01.502Z,2.30
2023-04-27T11:59:21.817Z,2.53
2023-04-27T12:00:43.211Z,2.00
2023-04-27T12:02:06.173Z,2.95
2023-04-27T12:03:26.374Z,3.37
2023-04-27T12:04:29.652Z,2.00
2023-04-27T12:07:32.264Z,1.67
2023-04-27T12:08:34.893Z,1.80
2023-04-27T12:09:36.994Z,1.92
2023-04-27T12:11:16.366Z,1.58
2023-04-27T12:12:55.480Z,1.80
2023-04-27T12:14:16.105Z,1.93
2023-04-27T12:15:36.645Z,1.85
2023-04-27T12:16:56.957Z,1.80
2023-04-27T12:18:36.742Z,2.33
2023-04-27T12:19:58.150Z,1.67
2023-04-27T12:21:03.123Z,1.63
2023-04-27T12:22:24.060Z,1.70
2023-04-27T12:23:26.138Z,2.10
2023-04-27T12:24:47.180Z,1.50
2023-04-27T12:26:07.368Z,1.58
2023-04-27T12:27:28.551Z,1.83
2023-04-27T12:28:48.765Z,1.93
2023-04-27T12:30:28.834Z,2.20
2023-04-27T12:31:31.852Z,1.93
2023-04-27T12:33:11.505Z,2.07
2023-04-27T12:34:14.002Z,2.23
2023-04-27T12:35:34.890Z,2.07
2023-04-27T12:36:55.328Z,2.20
2023-04-27T12:38:15.883Z,2.17
2023-04-27T12:39:19.875Z,2.27
2023-04-27T12:40:23.306Z,2.03
2023-04-27T12:41:43.837Z,2.50
2023-04-27T12:43:04.758Z,2.00
2023-04-27T12:44:25.358Z,2.37
2023-04-27T12:45:27.534Z,1.90
2023-04-27T12:46:29.563Z,1.80
2023-04-27T12:47:50.342Z,2.73
2023-04-27T12:49:13.005Z,2.10
2023-04-27T12:50:51.997Z,2.70
2023-04-27T12:52:12.575Z,2.30
2023-04-27T12:53:14.235Z,2.13
2023-04-27T12:54:34.445Z,2.57
2023-04-27T12:55:37.366Z,2.90
2023-04-27T12:56:58.440Z,2.23
2023-04-27T12:58:18.877Z,3.00
2023-04-27T12:59:39.105Z,2.50
2023-04-27T13:00:42.063Z,2.63
2023-04-27T13:02:02.570Z,2.03
2023-04-27T13:03:24.779Z,2.67
2023-04-27T13:04:47.148Z,3.10
2023-04-27T13:06:07.677Z,2.80
2023-04-27T13:07:27.680Z,2.50
2023-04-27T13:09:07.764Z,2.93
2023-04-27T13:10:29.590Z,2.40
2023-04-27T13:12:08.695Z,2.27
2023-04-27T13:13:47.778Z,1.97
2023-04-27T13:15:08.066Z,2.40
2023-04-27T13:16:10.241Z,2.73
2023-04-27T13:17:12.586Z,2.20
2023-04-27T13:18:51.552Z,2.37
2023-04-27T13:19:53.230Z,2.90
2023-04-27T13:21:31.976Z,2.20
2023-04-27T13:22:35.391Z,2.40
2023-04-27T13:24:00.057Z,2.20
2023-04-27T13:25:39.673Z,2.30
2023-04-27T13:27:00.136Z,1.77
2023-04-27T13:28:39.149Z,2.77
2023-04-27T13:29:40.880Z,2.53
2023-04-27T13:30:42.542Z,2.90
2023-04-27T13:32:04.445Z,2.50
2023-04-27T13:33:25.536Z,2.57
2023-04-27T13:34:27.199Z,1.90
2023-04-27T13:35:47.674Z,2.80
2023-04-27T13:37:26.810Z,2.77
2023-04-27T13:39:06.303Z,2.50
2023-04-27T13:40:13.239Z,2.17
2023-04-27T13:41:15.155Z,2.30
2023-04-27T13:42:54.579Z,2.50
2023-04-27T13:44:33.324Z,2.37
2023-04-27T13:45:55.472Z,3.20
2023-04-27T13:47:15.941Z,2.13
2023-04-27T13:48:17.675Z,2.60
2023-04-27T13:49:38.296Z,2.40
2023-04-27T13:50:40.363Z,3.27
2023-04-27T13:52:19.063Z,2.30
2023-04-27T13:53:40.908Z,2.40
2023-04-27T13:54:44.176Z,2.30
2023-04-27T13:56:23.312Z,2.03
2023-04-27T13:58:02.275Z,2.30
2023-04-27T13:59:23.427Z,2.07
2023-04-27T14:00:44.090Z,2.10
2023-04-27T14:01:46.160Z,2.20
2023-04-27T14:03:06.895Z,2.40
2023-04-27T14:04:45.923Z,1.90
2023-04-27T14:05:49.597Z,2.40
2023-04-27T14:07:09.918Z,1.90
2023-04-27T14:08:49.664Z,1.53
2023-04-27T14:10:10.623Z,2.03
2023-04-27T14:11:56.478Z,2.07
2023-04-27T14:12:59.673Z,2.60
2023-04-27T14:14:39.239Z,2.40
2023-04-27T14:16:00.455Z,2.60
2023-04-27T14:17:21.171Z,3.20
2023-04-27T14:19:00.799Z,2.70
2023-04-27T14:20:22.236Z,2.07
2023-04-27T14:22:01.994Z,1.60
2023-04-27T14:23:25.635Z,1.47
2023-04-27T14:25:04.994Z,1.47
2023-04-27T14:26:25.220Z,1.17
2023-04-27T14:27:45.980Z,1.30
2023-04-27T14:29:06.941Z,1.00
2023-04-27T14:30:29.570Z,1.30
2023-04-27T14:31:50.433Z,0.80
2023-04-27T14:32:52.114Z,1.10
2023-04-27T14:34:31.475Z,0.77
2023-04-27T14:35:54.474Z,0.87
2023-04-27T14:37:14.670Z,1.10
2023-04-27T14:38:38.918Z,1.00
2023-04-27T14:40:18.480Z,0.70
2023-04-27T14:41:39.139Z,1.00
2023-04-27T14:43:18.660Z,0.77
2023-04-27T14:44:20.524Z,0.67
2023-04-27T14:45:50.684Z,0.57
2023-04-27T14:47:02.998Z,0.73
2023-04-27T14:48:25.743Z,0.70
2023-04-27T14:49:46.443Z,0.80
2023-04-27T14:51:07.970Z,0.87
2023-04-27T14:52:47.578Z,0.80
2023-04-27T14:54:09.903Z,0.70
2023-04-27T14:55:18.614Z,0.80
2023-04-27T14:56:58.685Z,1.03
2023-04-27T14:58:19.457Z,0.80
2023-04-27T14:59:39.826Z,1.37
2023-04-27T15:01:19.122Z,1.07
2023-04-27T15:02:20.806Z,1.20
2023-04-27T15:03:22.568Z,1.00
2023-04-27T15:05:02.599Z,1.20
2023-04-27T15:06:41.904Z,1.10
2023-04-27T15:07:44.013Z,0.80
2023-04-27T15:09:04.477Z,1.00
2023-04-27T15:10:25.148Z,1.23
2023-04-27T15:11:45.549Z,0.80
2023-04-27T15:12:47.344Z,1.37
2023-04-27T15:14:26.530Z,1.10
2023-04-27T15:16:05.853Z,1.07
2023-04-27T15:17:08.834Z,0.90
2023-04-27T15:18:47.992Z,0.77
2023-04-27T15:20:08.959Z,0.87
2023-04-27T15:21:29.631Z,0.90
2023-04-27T15:23:09.170Z,0.93
2023-04-27T15:24:48.422Z,0.93
2023-04-27T15:26:27.703Z,1.27
2023-04-27T15:28:07.209Z,0.90
2023-04-27T15:29:47.560Z,1.00
2023-04-27T15:31:10.749Z,1.30
2023-04-27T15:32:31.577Z,1.03
2023-04-27T15:33:33.516Z,0.90
2023-04-27T15:35:12.447Z,0.83
2023-04-27T15:36:15.565Z,0.80
2023-04-27T15:37:35.758Z,0.90
2023-04-27T15:38:57.720Z,0.97
2023-04-27T15:40:37.297Z,1.00
2023-04-27T15:41:40.506Z,1.53
2023-04-27T15:42:44.529Z,0.97
2023-04-27T15:44:05.328Z,0.80
2023-04-27T15:45:27.027Z,1.40
2023-04-27T15:46:48.948Z,1.20
2023-04-27T15:47:50.601Z,0.70
2023-04-27T15:49:31.149Z,0.90
2023-04-27T15:50:52.043Z,1.10
2023-04-27T15:52:12.600Z,1.00
2023-04-27T15:53:14.489Z,1.30
2023-04-27T15:54:36.426Z,1.13
2023-04-27T15:55:56.762Z,0.90
2023-04-27T15:57:18.217Z,1.10
2023-04-27T15:58:57.709Z,0.93
2023-04-27T16:00:38.247Z,1.03
2023-04-27T16:02:17.994Z,0.83
2023-04-27T16:03:57.215Z,1.03
2023-04-27T16:05:18.265Z,1.00
2023-04-27T16:06:21.199Z,0.73
2023-04-27T16:07:41.359Z,0.80
2023-04-27T16:09:20.309Z,0.73
2023-04-27T16:10:59.745Z,0.80
2023-04-27T16:12:20.237Z,0.70
2023-04-27T16:13:22.353Z,0.97
2023-04-27T16:14:23.951Z,1.13
2023-04-27T16:15:44.535Z,1.03
2023-04-27T16:17:04.845Z,1.03
2023-04-27T16:18:25.494Z,1.00
2023-04-27T16:19:46.516Z,1.00
2023-04-27T16:21:06.693Z,0.80
2023-04-27T16:22:45.928Z,1.30
2023-04-27T16:24:06.371Z,0.77
2023-04-27T16:25:45.515Z,1.10
2023-04-27T16:27:05.720Z,0.90
2023-04-27T16:28:44.679Z,0.87
2023-04-27T16:30:05.360Z,0.87
2023-04-27T16:31:25.655Z,1.10
2023-04-27T16:33:04.569Z,1.10
2023-04-27T16:34:25.271Z,1.13
2023-04-27T16:35:29.819Z,1.07
2023-04-27T16:37:10.279Z,1.20
2023-04-27T16:38:12.002Z,1.30
2023-04-27T16:39:33.451Z,1.43
2023-04-27T16:41:12.324Z,0.80
2023-04-27T16:42:20.407Z,1.17
2023-04-27T16:43:41.521Z,1.90
2023-04-27T16:45:02.363Z,1.30
2023-04-27T16:46:22.698Z,1.27
2023-04-27T16:48:02.106Z,1.30
2023-04-27T16:49:40.984Z,1.10
2023-04-27T16:51:20.180Z,1.40
2023-04-27T16:52:40.437Z,1.50
2023-04-27T16:54:19.244Z,1.23
2023-04-27T16:55:58.493Z,1.27
2023-04-27T16:57:00.354Z,1.40
2023-04-27T16:58:39.991Z,1.00
2023-04-27T17:00:00.392Z,1.10
2023-04-27T17:01:21.082Z,1.50
2023-04-27T17:03:00.327Z,1.30
2023-04-27T17:04:04.783Z,1.23
2023-04-27T17:05:44.036Z,1.43
2023-04-27T17:07:05.559Z,1.23
2023-04-27T17:08:25.640Z,1.80
2023-04-27T17:09:46.031Z,1.90
2023-04-27T17:10:47.844Z,1.70
2023-04-27T17:12:12.334Z,2.30
2023-04-27T17:13:33.198Z,1.70
2023-04-27T17:14:53.604Z,1.60
2023-04-27T17:15:55.400Z,1.47
2023-04-27T17:16:57.312Z,1.17
2023-04-27T17:18:37.145Z,1.63
2023-04-27T17:19:40.490Z,1.40
2023-04-27T17:21:00.484Z,1.33
2023-04-27T17:22:20.883Z,1.30
2023-04-27T17:23:23.673Z,1.10
2023-04-27T17:24:44.079Z,1.20
2023-04-27T17:26:04.721Z,1.33
2023-04-27T17:27:24.939Z,1.30
2023-04-27T17:28:26.708Z,1.10
2023-04-27T17:29:28.281Z,1.33
2023-04-27T17:30:30.560Z,1.33
2023-04-27T17:32:10.700Z,1.33
2023-04-27T17:33:32.158Z,1.43
2023-04-27T17:34:36.147Z,1.17
2023-04-27T17:35:57.674Z,1.20
2023-04-27T17:37:18.442Z,1.60
2023-04-27T17:38:21.962Z,1.40
2023-04-27T17:39:25.288Z,1.73
2023-04-27T17:40:46.302Z,1.60
2023-04-27T17:42:07.132Z,1.57
2023-04-27T17:43:46.540Z,1.83
2023-04-27T17:45:07.271Z,1.30
2023-04-27T17:46:29.085Z,1.70
2023-04-27T17:47:49.415Z,1.60
2023-04-27T17:49:09.867Z,1.20
2023-04-27T17:50:30.111Z,1.67
2023-04-27T17:51:34.604Z,1.47
2023-04-27T17:52:36.568Z,1.80
2023-04-27T17:53:58.084Z,1.87
2023-04-27T17:55:37.522Z,1.63
2023-04-27T17:57:16.720Z,2.70
2023-04-27T17:58:37.235Z,1.60
2023-04-27T17:59:57.882Z,1.83
2023-04-27T18:01:18.446Z,1.50
2023-04-27T18:02:39.337Z,1.27
2023-04-27T18:04:19.395Z,1.93
2023-04-27T18:05:39.918Z,1.60
2023-04-27T18:09:02.404Z,1.43